Main page
METAR-TAF:

METAR-TAF

Airports :

Bandar Abbas International Airport

Bandar Abbas, Iran

latitude: 27-13N, longitude: 056-22E, elevation: 10 m

Current weather observation

The report was made 35 minutes ago, at 20:30 UTC
Wind 10 kt from the East
Temperature 33°C
Humidity 71%
Pressure 995 hPa
Visibility: 6000 m

METAR: OIKB 052030Z 10010KT 6000 NSC 33/27 Q0995 A2939

Time: 01:35 (21:05 UTC)

Forecast

The report was made 3 hours and 35 minutes ago, at 17:30 UTC
Forecast valid from 05 at 18 UTC to 06 at 24 UTC
Wind 8 kt from the South/Southeast
Visibility: 5000 m
Scattered clouds at a height of 10000 ft
haze
Temporary
from 05 at 23 UTC to 06 at 04 UTC
Visibility: 3000 m
Few clouds at a height of 2500 ft
mist
Temporary
from 06 at 09 UTC to 06 at 16 UTC
Wind 14 kt from the Southeast
Few clouds at a height of 2500 ft, Cumulonimbus.
Scattered clouds at a height of 4000 ft

TAF: OIKB 051730Z 0518/0624 16008KT 5000 HZ SCT100 TEMPO 0523/0604 3000 BR FEW025 TEMPO 0609/0616 14014KT FEW025CB SCT040

Weather observations and forecasts of more than 4000 airports (METAR and TAF reports).

The available stations are represented by yellow and red dots on the map.

Hover mouse over dot to see the name of the station.

Then click to see weather observations and forecasts.

To change the map : click on the green buttons with a black cross to zoom in, on the green button with a dash to zoom out, or on the green arrows for adjacent maps.


METAR-TAF: